DAFH

Hassi R'Mel Airport

Algeria
METAR DAFH 151800Z 27010KT CAVOK 40/05 Q1019
Observed Flight Rules
Jul-15 @ 18:00 UTC (3 hours ago) Visual Flight Rules
Wind Visibility Clouds
270° at 10 knots 10,000+ meters
  • Clear skies
Temperatures Readings
Current 40°C / 104°F
Dewpoint 5°C / 41°F
Humidity 12%
Altimeter 30.09" Hg
Pressure 1019 hPa
Elevation 774
METAR DAFH 151800Z 27010KT CAVOK 40/05 Q1019
Observed Flight Rules
Jul-15 @ 18:00 UTC
(3 hours ago)
VFR
Wind Visibility
270° at 10 knots 10,000+ meters
Clouds
  • Clear skies
Temperature Dewpoint
40°C / 104°F 5°C / 41°F
Humidity Altimeter Pressure
12% 30.09" Hg 1019 hPa